Time;durP1;ratioP1;P1;durP2;ratioP2;P2;SDS_P1;SDS_P2;PMS_P1;PMS_P2;Temp;Humidity;BMP_temperature;BMP_pressure;BME280_temperature;BME280_humidity;BME280_pressure;Samples;Min_cycle;Max_cycle;Signal;HPM_P1;HPM_P2
2023/10/06 00:00:42;;;;;;;9.05;5.15;;;;;;;11.71;100.00;101906.41;5033659;28;20111;-80
2023/10/06 00:03:14;;;;;;;15.05;5.57;;;;;;;11.73;100.00;101909.72;5032700;28;20084;-80
2023/10/06 00:05:41;;;;;;;11.10;5.03;;;;;;;11.69;100.00;101906.53;5033544;28;20077;-81
2023/10/06 00:08:10;;;;;;;12.85;6.03;;;;;;;11.60;100.00;101910.78;5033158;28;20105;-79
2023/10/06 00:10:44;;;;;;;12.05;6.28;;;;;;;11.57;100.00;101924.16;5034174;28;20061;-80
2023/10/06 00:13:12;;;;;;;9.73;4.93;;;;;;;11.58;100.00;101915.31;5038695;28;20477;-80
2023/10/06 00:15:50;;;;;;;8.93;5.28;;;;;;;11.49;100.00;101917.88;5039946;28;20092;-81
2023/10/06 00:18:19;;;;;;;12.63;5.70;;;;;;;11.41;100.00;101918.53;5038973;28;20408;-81
2023/10/06 00:20:48;;;;;;;10.98;5.80;;;;;;;11.36;100.00;101927.75;5040089;28;20049;-81
2023/10/06 00:23:20;;;;;;;9.55;5.50;;;;;;;11.41;100.00;101936.88;5040677;28;20046;-79
2023/10/06 00:25:47;;;;;;;9.15;5.78;;;;;;;11.36;100.00;101933.00;5038342;28;20062;-80
2023/10/06 00:28:18;;;;;;;13.35;6.45;;;;;;;11.44;100.00;101928.75;5037667;28;20567;-81
2023/10/06 00:30:47;;;;;;;11.75;5.53;;;;;;;11.35;100.00;101934.78;5038942;28;20530;-81
2023/10/06 00:33:14;;;;;;;7.72;5.13;;;;;;;11.38;100.00;101928.44;5039280;28;20072;-81
2023/10/06 00:35:41;;;;;;;9.88;5.20;;;;;;;11.34;100.00;101927.91;5038298;28;20060;-80
2023/10/06 00:38:16;;;;;;;9.07;5.28;;;;;;;11.37;100.00;101930.25;5038451;28;20164;-81
2023/10/06 00:40:50;;;;;;;13.27;6.38;;;;;;;11.29;100.00;101914.34;5084629;22;20040;-80
2023/10/06 00:43:28;;;;;;;8.77;5.60;;;;;;;11.34;100.00;101909.56;5098210;28;20052;-79
2023/10/06 00:46:00;;;;;;;11.60;5.40;;;;;;;11.40;100.00;101927.38;5095835;28;20048;-80
2023/10/06 00:48:29;;;;;;;10.65;5.72;;;;;;;11.40;100.00;101927.38;5097328;28;20048;-81
2023/10/06 00:50:57;;;;;;;12.15;5.78;;;;;;;11.33;100.00;101922.78;5078371;28;20144;-82
2023/10/06 00:53:31;;;;;;;12.90;5.82;;;;;;;11.37;100.00;101930.25;5091820;28;20107;-83
2023/10/06 00:55:59;;;;;;;11.85;5.55;;;;;;;11.32;100.00;101924.59;5084145;28;20062;-81
2023/10/06 00:58:28;;;;;;;10.73;5.72;;;;;;;11.31;100.00;101917.69;5080895;28;20131;-80
2023/10/06 01:00:56;;;;;;;8.23;5.55;;;;;;;11.35;100.00;101913.81;5081361;28;20068;-84
2023/10/06 01:03:25;;;;;;;10.30;5.55;;;;;;;11.39;100.00;101920.47;5086084;28;20054;-83
2023/10/06 01:05:57;;;;;;;10.63;5.70;;;;;;;11.37;100.00;101917.13;5075542;28;20135;-83
2023/10/06 01:08:27;;;;;;;10.57;5.60;;;;;;;11.30;100.00;101913.41;5088115;28;20536;-82
2023/10/06 01:11:06;;;;;;;11.45;6.18;;;;;;;11.26;100.00;101914.63;5093581;28;20052;-80
2023/10/06 01:13:33;;;;;;;10.90;5.97;;;;;;;11.22;100.00;101915.84;5102905;28;20058;-83
2023/10/06 01:16:02;;;;;;;12.88;5.90;;;;;;;11.15;100.00;101901.59;5092338;28;20604;-83
2023/10/06 01:18:35;;;;;;;12.63;6.13;;;;;;;11.10;100.00;101914.22;5076817;28;20057;-83
2023/10/06 01:21:13;;;;;;;11.02;5.68;;;;;;;11.04;100.00;101912.13;5094474;28;20060;-83
2023/10/06 01:23:41;;;;;;;10.57;6.00;;;;;;;11.02;100.00;101919.28;5102684;28;20044;-81
2023/10/06 01:26:08;;;;;;;9.50;6.43;;;;;;;10.96;100.00;101913.59;5094427;28;20048;-82
2023/10/06 01:28:35;;;;;;;11.15;6.28;;;;;;;11.01;100.00;101912.38;5093434;28;20052;-83
2023/10/06 01:31:02;;;;;;;11.45;6.05;;;;;;;11.01;100.00;101917.59;5091353;28;20127;-83
2023/10/06 01:33:28;;;;;;;10.18;6.20;;;;;;;10.92;100.00;101906.94;5082007;28;20049;-82
2023/10/06 01:35:55;;;;;;;11.90;6.28;;;;;;;10.97;100.00;101904.78;5075602;28;20049;-82
2023/10/06 01:38:23;;;;;;;8.48;6.13;;;;;;;10.96;100.00;101903.09;5097422;28;20048;-84
2023/10/06 01:40:52;;;;;;;11.85;6.38;;;;;;;10.98;100.00;101900.38;5081741;28;20049;-83
2023/10/06 01:43:23;;;;;;;12.77;6.60;;;;;;;10.89;100.00;101881.00;5081619;28;20070;-84
2023/10/06 01:45:51;;;;;;;12.98;6.20;;;;;;;10.93;100.00;101879.78;5082473;28;20064;-84
2023/10/06 01:48:23;;;;;;;11.57;6.40;;;;;;;11.06;100.00;101891.88;5079537;28;20056;-83
2023/10/06 01:50:50;;;;;;;14.80;6.18;;;;;;;11.03;100.00;101881.66;5079106;28;20083;-83
2023/10/06 01:53:19;;;;;;;12.77;6.40;;;;;;;11.01;100.00;101879.16;5076599;28;20065;-83
2023/10/06 01:55:49;;;;;;;9.82;6.20;;;;;;;11.05;100.00;101893.66;5089013;28;20112;-84
2023/10/06 01:58:17;;;;;;;15.13;6.15;;;;;;;10.97;100.00;101875.13;5092618;28;20047;-81
2023/10/06 02:00:45;;;;;;;13.82;6.22;;;;;;;10.83;100.00;101881.53;5083540;28;20047;-83
2023/10/06 02:03:13;;;;;;;12.95;6.45;;;;;;;10.72;100.00;101878.13;5104720;28;20054;-83
2023/10/06 02:05:42;;;;;;;10.52;6.45;;;;;;;10.73;100.00;101878.00;5090757;28;20048;-84
2023/10/06 02:08:14;;;;;;;14.05;6.45;;;;;;;10.72;100.00;101891.22;5075850;28;20577;-83
2023/10/06 02:10:42;;;;;;;14.50;6.90;;;;;;;10.79;100.00;101895.00;5091070;28;20048;-84
2023/10/06 02:13:09;;;;;;;10.30;6.47;;;;;;;10.72;100.00;101889.44;5079202;28;20059;-82
2023/10/06 02:15:37;;;;;;;15.30;7.20;;;;;;;10.70;100.00;101893.97;5095617;28;20146;-82
2023/10/06 02:18:07;;;;;;;10.50;5.85;;;;;;;10.71;100.00;101894.81;5090886;28;20139;-83
2023/10/06 02:20:34;;;;;;;14.13;6.50;;;;;;;10.66;100.00;101886.50;5093077;28;20101;-83
2023/10/06 02:23:03;;;;;;;15.18;6.53;;;;;;;10.67;100.00;101886.38;5091243;28;20385;-83
2023/10/06 02:25:31;;;;;;;16.05;7.07;;;;;;;10.68;100.00;101889.81;5099620;28;20058;-83
2023/10/06 02:27:59;;;;;;;12.48;6.50;;;;;;;10.64;100.00;101892.69;5086056;28;20048;-82
2023/10/06 02:30:33;;;;;;;14.05;6.55;;;;;;;10.71;100.00;101885.16;5082882;28;20520;-83
2023/10/06 02:33:01;;;;;;;17.33;7.05;;;;;;;10.68;100.00;101893.25;5090374;28;20564;-83
2023/10/06 02:35:28;;;;;;;14.70;6.57;;;;;;;10.71;100.00;101894.81;5084809;28;20095;-84
2023/10/06 02:37:57;;;;;;;11.85;6.22;;;;;;;10.77;100.00;101897.75;5099024;28;20105;-83
2023/10/06 02:40:30;;;;;;;13.00;6.38;;;;;;;10.76;100.00;101890.03;5080983;28;20067;-83
2023/10/06 02:43:00;;;;;;;12.90;6.68;;;;;;;10.65;100.00;101893.50;5080211;28;20127;-82
2023/10/06 02:45:37;;;;;;;11.13;6.68;;;;;;;10.64;100.00;101882.22;5078115;28;20068;-82
2023/10/06 02:48:14;;;;;;;13.57;6.60;;;;;;;10.65;100.00;101888.28;5077302;28;20052;-83
2023/10/06 02:50:44;;;;;;;12.90;7.00;;;;;;;10.58;100.00;101887.13;5077884;28;20055;-81
2023/10/06 02:53:14;;;;;;;13.27;6.55;;;;;;;10.67;100.00;101886.38;5085704;28;20048;-83
2023/10/06 02:55:43;;;;;;;12.68;6.68;;;;;;;10.51;100.00;101889.41;5098337;28;20054;-83
2023/10/06 02:58:15;;;;;;;12.20;6.45;;;;;;;10.49;100.00;101893.09;5074468;28;20048;-82
2023/10/06 03:00:50;;;;;;;14.70;6.85;;;;;;;10.46;100.00;101895.97;5087445;28;20134;-82
2023/10/06 03:03:21;;;;;;;11.70;6.80;;;;;;;10.44;100.00;101884.78;5097960;28;20086;-82
2023/10/06 03:05:51;;;;;;;13.18;6.60;;;;;;;10.40;100.00;101891.25;5098628;28;20055;-82
2023/10/06 03:08:20;;;;;;;9.85;6.70;;;;;;;10.41;100.00;101893.72;5093339;28;20080;-82
2023/10/06 03:10:48;;;;;;;13.40;6.72;;;;;;;10.38;100.00;101893.16;5088242;28;20571;-83
2023/10/06 03:13:24;;;;;;;11.15;6.70;;;;;;;10.38;100.00;101901.84;5086081;28;20495;-82
2023/10/06 03:15:51;;;;;;;14.90;7.25;;;;;;;10.36;100.00;101908.16;5079009;28;20052;-82
2023/10/06 03:18:19;;;;;;;12.80;6.85;;;;;;;10.36;100.00;101903.75;5086200;28;20493;-83
2023/10/06 03:20:53;;;;;;;12.77;6.85;;;;;;;10.39;100.00;101907.91;5074345;28;20053;-82
2023/10/06 03:23:26;;;;;;;11.27;7.03;;;;;;;10.33;100.00;101908.41;5093124;28;20044;-83
2023/10/06 03:25:57;;;;;;;16.33;7.43;;;;;;;10.37;100.00;101909.81;5086603;28;20048;-82
2023/10/06 03:28:31;;;;;;;11.15;7.20;;;;;;;10.32;100.00;101906.72;5085173;28;20058;-82
2023/10/06 03:31:02;;;;;;;13.93;7.53;;;;;;;10.37;100.00;101915.03;5097528;28;20127;-80
2023/10/06 03:33:31;;;;;;;14.35;7.15;;;;;;;10.30;100.00;101909.47;5077286;28;20076;-84
2023/10/06 03:35:58;;;;;;;9.38;7.00;;;;;;;10.29;100.00;101903.41;5071251;28;20525;-82
2023/10/06 03:38:36;;;;;;;18.65;7.72;;;;;;;10.32;100.00;101907.56;5094950;28;20131;-81
2023/10/06 03:41:18;;;;;;;14.48;7.22;;;;;;;10.25;100.00;101907.22;5093512;28;20503;-83
2023/10/06 03:43:49;;;;;;;11.68;6.85;;;;;;;10.26;100.00;101908.88;5076936;28;20103;-84
2023/10/06 03:46:18;;;;;;;12.02;7.50;;;;;;;10.24;100.00;101899.50;5072007;28;20127;-83
2023/10/06 03:48:48;;;;;;;13.07;7.13;;;;;;;10.28;100.00;101906.97;5074863;28;20056;-82
2023/10/06 03:51:17;;;;;;;15.63;7.43;;;;;;;10.24;100.00;101910.78;5092520;28;20490;-83
2023/10/06 03:53:44;;;;;;;15.02;7.30;;;;;;;10.22;100.00;101902.22;5090853;28;20044;-83
2023/10/06 03:56:12;;;;;;;12.57;7.32;;;;;;;10.21;100.00;101908.41;5085148;28;20473;-85
2023/10/06 03:58:39;;;;;;;15.10;7.43;;;;;;;10.25;100.00;101902.00;5086026;28;20048;-84
2023/10/06 04:01:09;;;;;;;13.50;7.15;;;;;;;10.39;100.00;101898.28;5069223;28;20056;-84
2023/10/06 04:03:36;;;;;;;12.65;7.13;;;;;;;10.35;100.00;101896.03;5076990;28;20044;-85
2023/10/06 04:06:04;;;;;;;11.60;7.13;;;;;;;10.39;100.00;101900.06;5088984;28;20071;-84
2023/10/06 04:08:31;;;;;;;13.13;7.75;;;;;;;10.34;100.00;101889.13;5074008;28;20136;-84
2023/10/06 04:10:58;;;;;;;14.63;7.57;;;;;;;10.26;100.00;101893.19;5079923;28;20135;-84
2023/10/06 04:13:25;;;;;;;13.57;7.40;;;;;;;10.20;100.00;101888.44;5080641;28;20045;-84
2023/10/06 04:15:53;;;;;;;12.60;7.65;;;;;;;10.16;100.00;101891.38;5071903;28;20140;-84
2023/10/06 04:18:25;;;;;;;12.18;7.63;;;;;;;10.07;100.00;101892.94;5083004;28;20073;-84
2023/10/06 04:21:02;;;;;;;12.43;6.90;;;;;;;10.07;100.00;101892.94;5100783;28;20048;-83
2023/10/06 04:23:31;;;;;;;10.15;7.07;;;;;;;9.91;100.00;101874.22;5102428;28;20437;-84
2023/10/06 04:25:58;;;;;;;12.00;7.88;;;;;;;9.92;100.00;101886.34;5097355;28;20056;-82
2023/10/06 04:28:27;;;;;;;16.42;7.32;;;;;;;10.01;100.00;101903.06;5093387;28;20048;-83
2023/10/06 04:31:00;;;;;;;17.05;8.25;;;;;;;9.95;100.00;101888.69;5075207;28;20079;-82
2023/10/06 04:33:40;;;;;;;11.80;7.68;;;;;;;10.00;100.00;101904.84;5101053;28;20140;-83
2023/10/06 04:36:08;;;;;;;13.43;7.72;;;;;;;9.93;100.00;101885.34;5064006;28;20112;-83
2023/10/06 04:38:38;;;;;;;14.00;8.20;;;;;;;10.05;100.00;101894.84;5095190;28;20084;-82
2023/10/06 04:41:08;;;;;;;14.75;7.60;;;;;;;10.07;100.00;101882.50;5066031;28;20045;-82
2023/10/06 04:43:34;;;;;;;16.23;7.38;;;;;;;10.05;100.00;101881.78;5075021;28;20601;-83
2023/10/06 04:46:05;;;;;;;13.88;8.10;;;;;;;10.05;100.00;101884.41;5088862;28;20087;-83
2023/10/06 04:48:32;;;;;;;12.25;7.20;;;;;;;9.95;100.00;101873.81;5090276;28;20044;-83
2023/10/06 04:51:02;;;;;;;16.13;7.78;;;;;;;9.85;100.00;101866.84;5079871;28;20055;-83
2023/10/06 04:53:29;;;;;;;12.50;7.45;;;;;;;9.83;100.00;101863.53;5064243;28;20063;-83
2023/10/06 04:55:57;;;;;;;15.32;8.35;;;;;;;9.81;100.00;101868.06;5082628;28;20136;-84
2023/10/06 04:58:24;;;;;;;13.38;7.88;;;;;;;9.84;100.00;101870.44;5088441;28;20103;-82
2023/10/06 05:00:53;;;;;;;17.80;7.57;;;;;;;9.82;100.00;101865.31;5099434;28;20103;-82
2023/10/06 05:03:19;;;;;;;14.93;7.70;;;;;;;9.78;100.00;101866.50;5091230;28;20066;-84
2023/10/06 05:05:46;;;;;;;14.85;8.50;;;;;;;9.76;100.00;101862.34;5078216;28;20045;-81
2023/10/06 05:08:15;;;;;;;16.60;8.35;;;;;;;9.80;100.00;101864.59;5096814;28;20505;-81
2023/10/06 05:10:42;;;;;;;15.60;8.05;;;;;;;9.80;100.00;101872.44;5095084;28;20052;-84
2023/10/06 05:13:10;;;;;;;18.02;7.85;;;;;;;9.83;100.00;101874.00;5095774;28;20110;-82
2023/10/06 05:15:40;;;;;;;11.15;7.82;;;;;;;9.81;100.00;101870.66;5086013;28;20040;-81
2023/10/06 05:18:13;;;;;;;15.85;7.95;;;;;;;9.82;100.00;101877.56;5084186;28;20067;-82
2023/10/06 05:20:39;;;;;;;16.73;7.90;;;;;;;9.83;100.00;101876.59;5079182;28;20048;-80
2023/10/06 05:23:09;;;;;;;16.27;7.85;;;;;;;9.84;100.00;101855.56;5085124;28;20052;-81
2023/10/06 05:25:36;;;;;;;14.80;8.00;;;;;;;9.91;100.00;101869.00;5089558;28;20079;-82
2023/10/06 05:28:03;;;;;;;15.98;7.78;;;;;;;9.94;100.00;101860.88;5103942;28;20075;-79
2023/10/06 05:30:32;;;;;;;16.52;7.95;;;;;;;9.94;100.00;101859.09;5092254;28;20048;-82
2023/10/06 05:33:00;;;;;;;11.48;7.90;;;;;;;9.95;100.00;101852.06;5081049;28;20110;-80
2023/10/06 05:35:26;;;;;;;17.48;7.70;;;;;;;10.01;100.00;101850.75;5089126;28;20391;-82
2023/10/06 05:37:54;;;;;;;13.38;8.07;;;;;;;10.00;100.00;101852.53;5098279;28;20150;-81
2023/10/06 05:40:21;;;;;;;13.30;8.05;;;;;;;10.00;100.00;101852.53;5100083;28;20063;-81
2023/10/06 05:42:51;;;;;;;16.23;8.05;;;;;;;10.02;100.00;101847.19;5091697;28;20131;-81
2023/10/06 05:45:19;;;;;;;14.60;8.05;;;;;;;10.09;100.00;101849.19;5091227;28;20046;-82
2023/10/06 05:47:50;;;;;;;12.10;7.43;;;;;;;9.95;100.00;101854.69;5097154;28;20079;-82
2023/10/06 05:50:26;;;;;;;12.85;7.60;;;;;;;9.93;100.00;101865.28;5097617;28;20052;-82
2023/10/06 05:52:56;;;;;;;13.20;8.27;;;;;;;9.89;100.00;101863.88;5091061;28;20053;-82
2023/10/06 05:55:24;;;;;;;11.50;7.30;;;;;;;9.99;100.00;101861.34;5098729;28;20086;-82
2023/10/06 05:57:55;;;;;;;12.27;7.70;;;;;;;10.06;100.00;101861.69;5079349;28;20101;-83
2023/10/06 06:00:25;;;;;;;10.55;6.95;;;;;;;10.05;100.00;101853.00;5092075;28;20052;-83
2023/10/06 06:02:56;;;;;;;14.15;7.35;;;;;;;10.17;100.00;101857.25;5082963;28;20048;-83
2023/10/06 06:05:22;;;;;;;14.05;7.88;;;;;;;10.21;100.00;101861.31;5096256;28;20048;-82
2023/10/06 06:07:51;;;;;;;11.32;6.90;;;;;;;10.39;100.00;101853.78;5097455;28;20135;-83
2023/10/06 06:10:18;;;;;;;12.27;7.38;;;;;;;10.41;100.00;101856.25;5092504;28;20072;-83
2023/10/06 06:12:47;;;;;;;14.20;7.25;;;;;;;10.57;100.00;101854.03;5069441;28;20136;-83
2023/10/06 06:15:14;;;;;;;13.60;7.18;;;;;;;10.73;100.00;101851.84;5087970;28;20063;-82
2023/10/06 06:17:41;;;;;;;11.65;6.95;;;;;;;10.87;100.00;101850.69;5069642;28;20561;-83
2023/10/06 06:20:14;;;;;;;12.80;7.00;;;;;;;10.91;100.00;101846.84;5089569;28;20567;-83
2023/10/06 06:22:48;;;;;;;11.95;6.57;;;;;;;10.98;100.00;101848.81;5089420;28;20169;-82
2023/10/06 06:25:16;;;;;;;15.30;6.80;;;;;;;11.29;100.00;101854.91;5088732;28;20104;-82
2023/10/06 06:27:43;;;;;;;9.75;6.20;;;;;;;11.76;100.00;101859.66;5072383;28;20053;-83
2023/10/06 06:30:11;;;;;;;11.88;6.13;;;;;;;11.99;100.00;101842.72;5082098;28;20136;-82
2023/10/06 06:32:38;;;;;;;11.90;5.78;;;;;;;12.09;100.00;101848.00;5083223;28;20131;-82
2023/10/06 06:35:08;;;;;;;12.32;5.90;;;;;;;12.43;100.00;101843.19;5066140;28;20052;-84
2023/10/06 06:37:37;;;;;;;11.07;5.90;;;;;;;12.81;99.09;101834.41;5071559;28;20350;-84
2023/10/06 06:40:06;;;;;;;11.90;5.65;;;;;;;13.13;97.00;101837.53;5082680;22;20045;-87
2023/10/06 06:42:33;;;;;;;8.80;5.20;;;;;;;13.24;95.47;101834.75;5058086;28;20049;-87
2023/10/06 06:45:01;;;;;;;8.20;5.35;;;;;;;13.40;94.84;101828.03;5049838;28;20477;-87
2023/10/06 06:47:27;;;;;;;10.45;4.90;;;;;;;13.83;93.30;101827.41;5048514;28;20049;-87
2023/10/06 06:49:55;;;;;;;13.35;5.57;;;;;;;14.27;91.10;101817.78;5039394;28;20127;-88
2023/10/06 06:54:50;;;;;;;11.48;5.32;;;;;;;15.52;85.61;101805.09;5054382;28;20044;-81
2023/10/06 06:57:17;;;;;;;12.15;5.55;;;;;;;15.39;84.59;101805.53;5055675;28;20063;-81
2023/10/06 06:59:44;;;;;;;8.30;5.07;;;;;;;15.69;83.92;101805.97;5054499;28;20056;-81
2023/10/06 07:02:11;;;;;;;8.98;4.68;;;;;;;16.47;82.12;101796.69;5033585;28;20185;-80
2023/10/06 07:04:39;;;;;;;8.27;4.90;;;;;;;17.01;80.16;101788.19;5028937;28;20105;-80
2023/10/06 07:07:05;;;;;;;9.82;5.10;;;;;;;17.42;78.45;101776.44;5031427;28;20052;-80
2023/10/06 07:09:34;;;;;;;8.20;4.82;;;;;;;17.80;76.75;101784.53;5046108;28;20103;-81
2023/10/06 07:12:03;;;;;;;9.70;5.00;;;;;;;17.78;76.54;101781.22;5045918;28;20145;-80
2023/10/06 07:14:30;;;;;;;9.82;4.88;;;;;;;18.01;75.54;101789.97;5045106;28;20045;-82
2023/10/06 07:16:57;;;;;;;10.77;5.40;;;;;;;18.08;75.50;101788.28;5044752;28;20057;-82
2023/10/06 07:19:24;;;;;;;9.13;4.60;;;;;;;18.14;75.01;101787.56;5045274;28;20431;-81
2023/10/06 07:21:53;;;;;;;9.60;4.88;;;;;;;18.06;74.65;101795.56;5044080;28;20051;-82
2023/10/06 07:24:19;;;;;;;7.95;4.75;;;;;;;18.09;75.21;101800.53;5033874;28;20526;-82
2023/10/06 07:26:46;;;;;;;7.72;4.95;;;;;;;18.00;75.67;101798.94;5037996;28;20128;-82
2023/10/06 07:29:15;;;;;;;7.20;4.47;;;;;;;17.05;77.64;101808.81;5036767;28;20065;-83
2023/10/06 07:31:42;;;;;;;9.23;4.28;;;;;;;16.62;79.68;101830.34;5036061;28;20050;-81
2023/10/06 07:34:08;;;;;;;10.32;4.85;;;;;;;16.14;81.70;101850.47;5036781;28;20045;-82
2023/10/06 07:36:36;;;;;;;8.20;4.85;;;;;;;16.25;81.88;101840.41;5039095;28;20053;-83
2023/10/06 07:39:08;;;;;;;8.93;5.05;;;;;;;16.18;82.66;101841.22;5044464;28;20103;-82
2023/10/06 07:41:36;;;;;;;12.90;5.22;;;;;;;16.07;83.14;101844.19;5045747;28;20046;-82
2023/10/06 07:44:06;;;;;;;11.90;5.10;;;;;;;16.01;83.56;101835.09;5040971;28;20074;-79
2023/10/06 07:46:34;;;;;;;8.68;5.53;;;;;;;15.95;83.85;101830.47;5039454;28;20535;-81
2023/10/06 07:49:01;;;;;;;10.77;4.68;;;;;;;15.83;84.19;101819.38;5036283;28;20050;-82
2023/10/06 07:51:28;;;;;;;8.10;4.97;;;;;;;15.81;84.26;101826.63;5036604;28;20116;-81
2023/10/06 07:53:55;;;;;;;8.35;4.60;;;;;;;15.99;84.47;101829.16;5036841;28;20111;-84
2023/10/06 07:56:22;;;;;;;7.05;4.32;;;;;;;16.12;84.42;101834.78;5034439;28;20092;-82
2023/10/06 07:58:50;;;;;;;9.57;5.38;;;;;;;15.82;84.48;101830.09;5035493;28;20139;-82
2023/10/06 08:01:19;;;;;;;11.75;5.20;;;;;;;15.99;84.28;101823.88;5035049;28;20046;-84
2023/10/06 08:03:47;;;;;;;10.43;4.88;;;;;;;16.26;83.41;101820.09;5036008;28;20056;-84
2023/10/06 08:06:17;;;;;;;9.43;4.75;;;;;;;16.38;82.85;101808.22;5036059;28;20108;-83
2023/10/06 08:08:44;;;;;;;8.02;4.75;;;;;;;16.63;81.80;101797.63;5036978;28;20053;-84
2023/10/06 08:11:13;;;;;;;10.02;5.55;;;;;;;17.08;81.08;101802.34;5036598;28;20062;-85
2023/10/06 08:13:44;;;;;;;7.18;4.57;;;;;;;17.14;80.87;101799.84;5036983;28;20045;-81
2023/10/06 08:16:12;;;;;;;12.05;5.05;;;;;;;17.17;80.54;101798.69;5029932;28;20041;-81
2023/10/06 08:18:56;;;;;;;23.45;5.15;;;;;;;16.95;81.22;101807.38;5037110;28;20061;-83
2023/10/06 08:21:24;;;;;;;9.02;4.80;;;;;;;16.82;81.83;101808.72;5024192;28;20049;-82
2023/10/06 08:23:50;;;;;;;9.80;4.85;;;;;;;17.13;81.03;101800.03;5036692;28;20128;-80
2023/10/06 08:26:18;;;;;;;11.32;4.43;;;;;;;17.72;79.81;101798.63;5037328;28;20296;-83
2023/10/06 08:28:45;;;;;;;11.18;4.93;;;;;;;17.94;78.56;101790.91;5036519;28;20111;-81
2023/10/06 08:31:17;;;;;;;9.15;5.00;;;;;;;18.04;77.91;101794.94;5036451;28;20107;-84
2023/10/06 08:33:45;;;;;;;17.08;6.43;;;;;;;17.84;78.06;101796.41;5035798;28;20052;-85
2023/10/06 08:36:12;;;;;;;12.30;4.82;;;;;;;17.86;78.08;101797.88;5037060;28;20077;-83
2023/10/06 08:38:40;;;;;;;13.48;5.03;;;;;;;17.95;77.82;101782.78;5038860;28;20507;-83
2023/10/06 08:41:07;;;;;;;11.25;4.55;;;;;;;18.19;78.09;101795.81;5033478;28;20095;-83
2023/10/06 08:43:38;;;;;;;7.47;4.90;;;;;;;18.30;76.54;101775.22;5041400;28;20063;-84
2023/10/06 08:46:06;;;;;;;8.00;4.82;;;;;;;17.88;77.90;101789.78;5040307;28;20513;-83
2023/10/06 08:48:35;;;;;;;8.95;4.82;;;;;;;18.22;77.88;101786.69;5042134;28;20045;-82
2023/10/06 08:51:07;;;;;;;10.20;4.82;;;;;;;18.44;77.26;101775.22;5028754;28;20046;-82
2023/10/06 08:53:41;;;;;;;8.45;4.82;;;;;;;18.51;76.97;101778.81;5039209;28;20054;-83
2023/10/06 08:56:13;;;;;;;9.98;4.95;;;;;;;18.03;76.97;101768.63;5037727;28;20458;-82
2023/10/06 08:58:39;;;;;;;9.65;4.80;;;;;;;17.88;78.03;101787.13;5032149;28;20384;-82
2023/10/06 09:01:06;;;;;;;7.40;4.80;;;;;;;17.68;78.50;101791.22;5040501;28;20116;-82
2023/10/06 09:03:33;;;;;;;9.55;4.60;;;;;;;17.83;78.73;101790.28;5037740;28;20045;-79
2023/10/06 09:05:59;;;;;;;9.98;4.20;;;;;;;18.03;78.67;101795.94;5042145;28;20049;-81
2023/10/06 09:08:26;;;;;;;12.75;4.85;;;;;;;17.90;78.56;101795.72;5041039;28;20136;-81
2023/10/06 09:10:55;;;;;;;9.73;4.80;;;;;;;17.95;79.46;101801.31;5041815;28;20056;-82
2023/10/06 09:13:23;;;;;;;12.02;4.68;;;;;;;18.05;78.27;101793.09;5041555;28;20045;-81
2023/10/06 09:15:59;;;;;;;7.85;4.47;;;;;;;18.15;78.32;101783.94;5041437;28;20156;-81
2023/10/06 09:18:28;;;;;;;9.70;4.35;;;;;;;18.16;78.07;101780.28;5051245;28;20594;-81
2023/10/06 09:20:56;;;;;;;7.63;4.43;;;;;;;18.46;77.55;101783.00;5048557;28;20053;-82
2023/10/06 09:23:31;;;;;;;11.50;4.60;;;;;;;18.56;77.06;101776.44;5035625;28;20048;-83
2023/10/06 09:25:58;;;;;;;10.88;4.40;;;;;;;18.60;76.60;101774.28;5040143;28;20099;-79
2023/10/06 09:28:27;;;;;;;17.80;5.65;;;;;;;18.63;76.50;101768.63;5040784;28;20053;-80
2023/10/06 09:31:00;;;;;;;13.07;4.90;;;;;;;18.55;76.13;101766.00;5032378;28;20049;-82
2023/10/06 09:33:31;;;;;;;11.05;4.53;;;;;;;18.73;77.21;101785.09;5035268;28;20049;-82
2023/10/06 09:36:08;;;;;;;10.43;4.97;;;;;;;18.77;76.80;101765.16;5038949;28;20049;-79
2023/10/06 09:38:36;;;;;;;10.27;4.72;;;;;;;18.82;76.40;101770.75;5043269;28;20057;-82
2023/10/06 09:41:05;;;;;;;10.70;4.65;;;;;;;18.65;74.58;101745.41;5041065;28;20456;-82
2023/10/06 09:43:38;;;;;;;10.48;4.78;;;;;;;18.56;75.32;101754.41;5041950;28;20080;-81
2023/10/06 09:46:07;;;;;;;11.85;4.82;;;;;;;18.85;75.24;101757.13;5037865;28;20119;-82
2023/10/06 09:48:49;;;;;;;10.18;5.35;;;;;;;18.84;74.21;101752.81;5041748;28;20121;-82
2023/10/06 09:51:19;;;;;;;9.82;5.10;;;;;;;18.97;73.68;101754.00;5028910;28;20212;-82
2023/10/06 09:53:50;;;;;;;7.95;4.60;;;;;;;18.96;73.14;101718.69;5038039;28;20091;-81
2023/10/06 09:56:17;;;;;;;17.27;5.00;;;;;;;18.65;71.80;101699.50;5037400;28;20046;-80
2023/10/06 09:58:48;;;;;;;16.63;5.30;;;;;;;18.94;71.91;101726.00;5033934;28;20105;-80
2023/10/06 10:01:24;;;;;;;12.57;5.15;;;;;;;19.00;70.91;101708.53;5030974;28;20069;-80
2023/10/06 10:03:54;;;;;;;11.95;4.80;;;;;;;19.00;71.90;101722.63;5030383;28;20068;-80
2023/10/06 10:06:22;;;;;;;10.38;5.18;;;;;;;19.15;71.60;101736.69;5037225;28;20047;-80
2023/10/06 10:08:51;;;;;;;21.55;8.45;;;;;;;19.01;71.17;101715.47;5036206;28;20079;-80
2023/10/06 10:11:28;;;;;;;11.35;5.15;;;;;;;19.01;70.76;101707.53;5039405;28;20049;-81
2023/10/06 10:14:31;;;;;;;14.60;5.50;;;;;;;18.78;71.08;101713.78;5039066;28;20060;-78
2023/10/06 10:17:18;;;;;;;10.63;5.15;;;;;;;18.55;71.72;101723.59;5027879;28;20077;-82
2023/10/06 10:19:47;;;;;;;12.02;4.75;;;;;;;18.55;72.24;101726.25;5039567;28;20423;-82
2023/10/06 10:22:16;;;;;;;12.10;4.97;;;;;;;18.63;72.43;101733.34;5040512;28;20054;-81
2023/10/06 10:24:44;;;;;;;15.77;5.07;;;;;;;18.75;72.89;101732.69;5039975;28;20152;-82
2023/10/06 10:27:17;;;;;;;9.90;4.20;;;;;;;18.83;72.67;101724.66;5037176;28;20410;-81
2023/10/06 10:29:45;;;;;;;14.63;5.47;;;;;;;18.92;71.70;101721.88;5041287;28;20045;-82
2023/10/06 10:32:13;;;;;;;16.73;4.97;;;;;;;19.11;71.88;101721.31;5048147;28;20076;-80
2023/10/06 10:35:09;;;;;;;18.65;5.40;;;;;;;19.24;71.19;101713.53;5051758;28;20049;-81
2023/10/06 10:37:55;;;;;;;14.85;4.65;;;;;;;19.52;70.74;101717.13;5028246;28;20045;-82
2023/10/06 10:40:24;;;;;;;12.98;4.60;;;;;;;19.57;69.58;101699.81;5035929;28;20053;-80
2023/10/06 10:42:55;;;;;;;14.65;5.22;;;;;;;19.43;69.58;101699.63;5035617;28;20053;-80
2023/10/06 10:45:35;;;;;;;20.20;5.63;;;;;;;19.53;69.43;101697.53;5036747;28;20081;-80
2023/10/06 10:48:13;;;;;;;15.95;5.65;;;;;;;19.53;69.86;101697.53;5035926;28;20438;-81
2023/10/06 10:51:01;;;;;;;22.17;6.50;;;;;;;19.63;69.22;101699.06;5038510;28;20049;-81
2023/10/06 10:53:37;;;;;;;12.02;5.00;;;;;;;19.72;69.66;101677.50;5030255;28;20429;-80
2023/10/06 10:56:06;;;;;;;17.60;5.38;;;;;;;19.60;69.74;101681.69;5035689;28;20057;-80
2023/10/06 10:58:56;;;;;;;13.73;5.40;;;;;;;19.61;69.10;101659.44;5035130;28;20045;-80
2023/10/06 11:01:26;;;;;;;11.02;4.88;;;;;;;19.78;69.15;101665.31;5034423;28;20152;-81
2023/10/06 11:04:18;;;;;;;12.35;4.80;;;;;;;19.75;68.65;101663.84;5038533;28;20121;-80
2023/10/06 11:06:45;;;;;;;12.43;4.82;;;;;;;19.69;68.10;101650.50;5039062;28;20060;-81
2023/10/06 11:09:25;;;;;;;10.07;4.15;;;;;;;19.71;68.28;101662.59;5038842;28;20074;-80
2023/10/06 11:11:53;;;;;;;10.82;4.32;;;;;;;19.84;68.18;101653.91;5037154;28;20053;-81
2023/10/06 11:14:22;;;;;;;14.60;4.82;;;;;;;19.82;68.21;101656.75;5036756;28;20450;-81
2023/10/06 11:16:50;;;;;;;34.50;7.70;;;;;;;19.94;67.91;101648.25;5037516;28;20077;-82
2023/10/06 11:19:18;;;;;;;13.40;4.80;;;;;;;19.88;68.09;101655.16;5036982;28;20045;-80
2023/10/06 11:21:47;;;;;;;32.78;6.35;;;;;;;19.82;68.06;101655.94;5036269;28;20061;-80
2023/10/06 11:24:24;;;;;;;13.80;4.80;;;;;;;19.78;68.27;101657.34;5036521;28;20510;-81
2023/10/06 11:26:51;;;;;;;20.85;5.43;;;;;;;19.75;67.76;101655.06;5037219;28;20045;-81
2023/10/06 11:29:28;;;;;;;11.65;4.72;;;;;;;19.80;68.26;101663.28;5036374;28;20049;-82